Main page


Airports :

Dubai, United Arab Emirates

Al Maktoum International Airport

latitude: 24-53-49N, longitude: 55-09-40E, elevation: 35 m

Current weather observation

The report was made 1 hour and 0 minutes ago, at 09:00 UTC
Wind 14 kt from the West
Temperature 27°C
Humidity 48%
Pressure 1012 hPa
Visibility: 6000 m

METAR: OMDW 180900Z 28014KT 6000 NSC 27/15 Q1012 NOSIG

Time: 14:00 (10:00 UTC)


The report was made 5 hours and 0 minutes ago, at 05:00 UTC
Forecast valid from 18 at 06 UTC to 19 at 12 UTC
Wind 16 kt from the West/Northwest
Visibility: 6000 m
Scattered clouds at a height of 3000 ft
Probability 30%
from 18 at 06 UTC to 18 at 16 UTC
Wind 17 kt from the West/Northwest with gusts up to 27 kt
Visibility: 3000 m
Blowing dust
from 18 at 19 UTC to 18 at 21 UTC
Wind 5 kt from the Southwest
from 19 at 04 UTC to 19 at 06 UTC
Wind 14 kt from the West/Northwest

TAF: OMDW 180500Z 1806/1912 29016KT 6000 SCT030 PROB30 1806/1816 29017G27KT 3000 BLDU BECMG 1819/1821 22005KT BECMG 1904/1906 29014KT

Weather observations and forecasts of more than 4000 airports (METAR and TAF reports).

The available stations are represented by yellow and red dots on the map.

Hover mouse over dot to see the name of the station.

Then click to see weather observations and forecasts.

To change the map : click on the green buttons with a black cross to zoom in, on the green button with a dash to zoom out, or on the green arrows for adjacent maps.